Pine Forge, Pennsylvania
Current Conditions -  °F | °C
As of 12:54 PM on Saturday 22 Nov 2014 (Local Time) from KPTW Reporting Station
Clear Clear  
Wind Chill: 38°   Ceiling: Unl
Heat Index: 42°   Visibility: 10mi
Dew Point: 13°   Wind: 7mph
Humidity: 31%   Direction: NA
Pressure: 30.36"   Gusts: NA
Location:  40.28°N, 75.69°W
Report Text: KPTW 221754Z AUTO VRB06KT 10SM CLR 06/M11 A3036 RMK AO2 SLP280 T00561106 10056 21089 58041
Loading
Personal Weather Stations






























Interactive Weather Map New forecast layout! Learn more

10-Day Weather Forecast

Advertisements
Track Severe Weather on mobile